createdAt,value
2022-08-07T00:00:32.382Z,64.73
2022-08-07T00:01:43.965Z,64.73
2022-08-07T00:02:39.760Z,64.73
2022-08-07T00:03:36.746Z,64.84
2022-08-07T00:04:31.332Z,64.84
2022-08-07T00:05:31.331Z,64.64
2022-08-07T00:06:33.521Z,64.84
2022-08-07T00:07:40.199Z,64.84
2022-08-07T00:08:32.261Z,64.73
2022-08-07T00:09:35.399Z,64.84
2022-08-07T00:10:31.639Z,64.84
2022-08-07T00:11:33.781Z,64.73
2022-08-07T00:12:32.534Z,65.04
2022-08-07T00:13:31.221Z,64.94
2022-08-07T00:14:31.754Z,64.94
2022-08-07T00:15:37.663Z,65.07
2022-08-07T00:16:32.184Z,65.17
2022-08-07T00:17:31.207Z,65.37
2022-08-07T00:18:31.162Z,65.47
2022-08-07T00:19:59.954Z,65.17
2022-08-07T00:20:34.412Z,65.37
2022-08-07T00:21:56.008Z,65.37
2022-08-07T00:22:35.315Z,65.47
2022-08-07T00:23:31.111Z,65.47
2022-08-07T00:24:31.789Z,65.47
2022-08-07T00:25:37.414Z,65.57
2022-08-07T00:26:49.306Z,65.57
2022-08-07T00:27:51.837Z,65.78
2022-08-07T00:28:34.160Z,65.67
2022-08-07T00:29:31.410Z,65.78
2022-08-07T00:30:31.057Z,65.88
2022-08-07T00:31:38.446Z,65.88
2022-08-07T00:32:32.020Z,65.78
2022-08-07T00:33:32.927Z,65.67
2022-08-07T00:34:31.023Z,65.67
2022-08-07T00:35:30.981Z,65.88
2022-08-07T00:36:30.960Z,65.88
2022-08-07T00:37:30.966Z,65.98
2022-08-07T00:38:32.045Z,65.88
2022-08-07T00:39:31.109Z,65.88
2022-08-07T00:40:39.836Z,66.08
2022-08-07T00:41:31.911Z,66.28
2022-08-07T00:42:31.901Z,66.58
2022-08-07T00:44:00.854Z,66.38
2022-08-07T00:44:33.804Z,66.28
2022-08-07T00:45:30.872Z,66.28
2022-08-07T00:46:30.852Z,66.11
2022-08-07T00:48:07.628Z,66.21
2022-08-07T00:48:32.609Z,66.41
2022-08-07T00:50:19.309Z,66.52
2022-08-07T00:50:50.728Z,66.61
2022-08-07T00:51:56.909Z,66.72
2022-08-07T00:52:33.237Z,66.82
2022-08-07T00:53:44.170Z,66.92
2022-08-07T00:54:31.771Z,67.02
2022-08-07T00:56:00.749Z,67.25
2022-08-07T00:56:33.886Z,67.15
2022-08-07T00:57:30.953Z,67.25
2022-08-07T00:58:30.731Z,67.35
2022-08-07T00:59:35.115Z,67.66
2022-08-07T01:00:31.710Z,67.76
2022-08-07T01:01:44.186Z,67.66
2022-08-07T01:02:31.722Z,67.76
2022-08-07T01:03:55.895Z,67.96
2022-08-07T01:04:32.807Z,68.26
2022-08-07T01:05:30.660Z,68.40
2022-08-07T01:06:31.725Z,68.37
2022-08-07T01:07:30.949Z,68.50
2022-08-07T01:08:30.622Z,68.47
2022-08-07T01:10:03.869Z,68.26
2022-08-07T01:10:31.641Z,68.26
2022-08-07T01:12:09.744Z,68.26
2022-08-07T01:12:31.590Z,68.16
2022-08-07T01:13:35.207Z,68.37
2022-08-07T01:14:30.574Z,68.37
2022-08-07T01:15:35.879Z,68.37
2022-08-07T01:16:31.532Z,68.26
2022-08-07T01:17:30.586Z,68.37
2022-08-07T01:18:30.554Z,68.26
2022-08-07T01:19:32.292Z,68.37
2022-08-07T01:20:30.884Z,68.57
2022-08-07T01:21:30.524Z,68.87
2022-08-07T01:22:30.473Z,68.87
2022-08-07T01:23:36.719Z,68.67
2022-08-07T01:24:31.452Z,68.37
2022-08-07T01:25:54.398Z,68.40
2022-08-07T01:26:31.472Z,68.40
2022-08-07T01:27:32.287Z,68.70
2022-08-07T01:28:30.412Z,68.80
2022-08-07T01:29:31.549Z,68.90
2022-08-07T01:30:30.412Z,69.31
2022-08-07T01:31:41.766Z,69.31
2022-08-07T01:32:31.373Z,69.41
2022-08-07T01:33:55.146Z,69.21
2022-08-07T01:34:31.457Z,69.51
2022-08-07T01:35:52.604Z,69.71
2022-08-07T01:36:36.376Z,69.61
2022-08-07T01:37:31.373Z,69.21
2022-08-07T01:38:30.320Z,69.21
2022-08-07T01:39:40.504Z,69.21
2022-08-07T01:40:31.442Z,69.21
2022-08-07T01:41:30.281Z,69.21
2022-08-07T01:42:40.102Z,69.21
2022-08-07T01:43:34.774Z,69.21
2022-08-07T01:44:31.244Z,69.10
2022-08-07T01:45:36.110Z,69.01
2022-08-07T01:46:31.334Z,69.01
2022-08-07T01:48:18.426Z,69.10
2022-08-07T01:48:31.244Z,69.10
2022-08-07T01:49:31.971Z,69.31
2022-08-07T01:50:31.214Z,69.61
2022-08-07T01:52:03.575Z,69.51
2022-08-07T01:52:31.161Z,69.61
2022-08-07T01:54:11.954Z,69.61
2022-08-07T01:54:32.855Z,69.41
2022-08-07T01:55:33.661Z,69.61
2022-08-07T01:56:30.141Z,69.71
2022-08-07T01:57:30.104Z,69.71
2022-08-07T01:58:30.113Z,69.71
2022-08-07T01:59:31.003Z,69.61
2022-08-07T02:00:30.102Z,69.65
2022-08-07T02:02:01.994Z,69.85
2022-08-07T02:02:32.775Z,69.85
2022-08-07T02:03:42.622Z,69.95
2022-08-07T02:04:31.082Z,70.05
2022-08-07T02:05:43.194Z,70.39
2022-08-07T02:06:32.525Z,70.59
2022-08-07T02:07:35.780Z,70.89
2022-08-07T02:08:31.027Z,71.20
2022-08-07T02:09:33.791Z,71.33
2022-08-07T02:10:32.279Z,71.44
2022-08-07T02:11:30.997Z,72.14
2022-08-07T02:12:31.219Z,71.84
2022-08-07T02:13:57.590Z,71.84
2022-08-07T02:14:40.341Z,71.73
2022-08-07T02:15:30.943Z,72.34
2022-08-07T02:16:33.201Z,72.55
2022-08-07T02:17:31.634Z,72.48
2022-08-07T02:18:29.983Z,72.28
2022-08-07T02:20:05.817Z,72.58
2022-08-07T02:20:30.853Z,72.68
2022-08-07T02:21:55.105Z,72.99
2022-08-07T02:22:30.835Z,73.29
2022-08-07T02:23:29.843Z,73.39
2022-08-07T02:24:30.820Z,73.33
2022-08-07T02:26:10.770Z,73.33
2022-08-07T02:26:34.726Z,73.43
2022-08-07T02:27:34.834Z,73.43
2022-08-07T02:28:29.774Z,73.43
2022-08-07T02:29:29.753Z,73.53
2022-08-07T02:30:29.763Z,73.73
2022-08-07T02:31:29.782Z,75.15
2022-08-07T02:32:30.277Z,76.78
2022-08-07T02:33:42.019Z,76.78
2022-08-07T02:34:30.710Z,77.08
2022-08-07T02:36:30.673Z,76.74
2022-08-07T02:36:32.691Z,76.33
2022-08-07T02:37:29.907Z,78.06
2022-08-07T02:38:31.677Z,76.74
2022-08-07T02:39:43.403Z,76.13
2022-08-07T02:40:35.073Z,75.32
2022-08-07T02:41:33.571Z,74.30
2022-08-07T02:42:32.652Z,73.80
2022-08-07T02:43:29.606Z,73.29
2022-08-07T02:44:34.654Z,73.39
2022-08-07T02:45:59.297Z,73.09
2022-08-07T02:46:30.604Z,73.09
2022-08-07T02:47:35.056Z,73.60
2022-08-07T02:48:30.870Z,74.61
2022-08-07T02:49:55.880Z,74.41
2022-08-07T02:50:30.759Z,74.10
2022-08-07T02:51:49.586Z,74.14
2022-08-07T02:52:31.228Z,74.04
2022-08-07T02:53:31.638Z,73.93
2022-08-07T02:54:30.493Z,74.04
2022-08-07T02:56:04.105Z,74.14
2022-08-07T02:56:31.323Z,74.14
2022-08-07T02:57:29.526Z,74.34
2022-08-07T02:58:29.484Z,74.34
2022-08-07T02:59:29.443Z,74.24
2022-08-07T03:00:30.278Z,74.24
2022-08-07T03:01:36.644Z,74.27
2022-08-07T03:02:30.445Z,74.38
2022-08-07T03:03:29.613Z,74.58
2022-08-07T03:04:30.410Z,74.88
2022-08-07T03:05:35.713Z,74.98
2022-08-07T03:06:33.050Z,75.09
2022-08-07T03:08:05.053Z,75.32
2022-08-07T03:08:30.346Z,75.52
2022-08-07T03:09:41.815Z,75.83
2022-08-07T03:10:31.433Z,76.03
2022-08-07T03:11:29.310Z,76.14
2022-08-07T03:12:30.769Z,76.14
2022-08-07T03:13:29.285Z,76.34
2022-08-07T03:14:30.304Z,76.24
2022-08-07T03:15:47.479Z,76.34
2022-08-07T03:16:30.394Z,76.34
2022-08-07T03:17:29.508Z,76.44
2022-08-07T03:18:34.487Z,76.44
2022-08-07T03:19:37.146Z,76.58
2022-08-07T03:20:30.220Z,76.68
2022-08-07T03:21:33.041Z,76.68
2022-08-07T03:22:29.725Z,76.78
2022-08-07T03:23:33.961Z,77.70
2022-08-07T03:24:30.163Z,77.80
2022-08-07T03:25:32.443Z,77.59
2022-08-07T03:26:30.183Z,77.80
2022-08-07T03:27:30.588Z,77.90
2022-08-07T03:28:38.229Z,78.51
2022-08-07T03:29:30.116Z,79.02
2022-08-07T03:30:29.114Z,79.63
2022-08-07T03:31:42.814Z,79.52
2022-08-07T03:32:30.120Z,78.81
2022-08-07T03:33:32.259Z,78.20
2022-08-07T03:34:30.070Z,78.00
2022-08-07T03:35:43.758Z,77.80
2022-08-07T03:36:30.042Z,77.80
2022-08-07T03:37:32.399Z,78.00
2022-08-07T03:38:29.931Z,77.80
2022-08-07T03:39:46.202Z,77.83
2022-08-07T03:40:35.999Z,77.73
2022-08-07T03:41:41.669Z,77.63
2022-08-07T03:42:30.165Z,78.24
2022-08-07T03:43:33.054Z,78.34
2022-08-07T03:44:34.253Z,78.34
2022-08-07T03:45:31.674Z,78.34
2022-08-07T03:46:28.984Z,78.44
2022-08-07T03:47:47.822Z,78.58
2022-08-07T03:48:29.915Z,79.50
2022-08-07T03:49:28.975Z,81.39
2022-08-07T03:50:29.062Z,82.10
2022-08-07T03:51:30.860Z,82.51
2022-08-07T03:52:29.873Z,82.40
2022-08-07T03:53:50.149Z,81.59
2022-08-07T03:54:35.322Z,80.84
2022-08-07T03:55:52.783Z,80.24
2022-08-07T03:56:33.017Z,79.72
2022-08-07T03:58:34.439Z,79.52
2022-08-07T03:59:07.063Z,79.32
2022-08-07T03:59:29.793Z,79.18
2022-08-07T04:00:30.359Z,79.18
2022-08-07T04:01:28.852Z,78.67
2022-08-07T04:02:28.763Z,78.47
2022-08-07T04:03:28.753Z,78.57
2022-08-07T04:04:32.843Z,78.27
2022-08-07T04:05:41.023Z,77.97
2022-08-07T04:06:37.460Z,77.56
2022-08-07T04:07:41.716Z,78.06
2022-08-07T04:08:29.703Z,78.47
2022-08-07T04:09:38.104Z,78.88
2022-08-07T04:10:29.682Z,78.88
2022-08-07T04:12:24.613Z,78.78
2022-08-07T04:12:29.734Z,79.08
2022-08-07T04:13:28.642Z,78.98
2022-08-07T04:14:37.676Z,78.98
2022-08-07T04:15:29.623Z,78.88
2022-08-07T04:16:31.337Z,78.98
2022-08-07T04:18:11.300Z,79.79
2022-08-07T04:18:57.148Z,81.78
2022-08-07T04:19:50.953Z,81.07
2022-08-07T04:20:29.584Z,79.75
2022-08-07T04:21:31.184Z,78.30
2022-08-07T04:22:29.490Z,77.48
2022-08-07T04:23:43.962Z,76.98
2022-08-07T04:24:34.334Z,76.87
2022-08-07T04:25:29.633Z,77.69
2022-08-07T04:26:28.831Z,77.75
2022-08-07T04:27:28.533Z,77.75
2022-08-07T04:28:37.430Z,77.55
2022-08-07T04:29:30.464Z,78.36
2022-08-07T04:30:39.451Z,77.45
2022-08-07T04:31:38.762Z,76.74
2022-08-07T04:32:34.751Z,76.84
2022-08-07T04:33:29.453Z,76.84
2022-08-07T04:34:33.217Z,76.74
2022-08-07T04:35:35.407Z,77.14
2022-08-07T04:36:29.404Z,76.74
2022-08-07T04:37:28.824Z,76.13
2022-08-07T04:38:28.669Z,75.82
2022-08-07T04:39:28.415Z,75.42
2022-08-07T04:40:30.142Z,75.66
2022-08-07T04:41:28.343Z,75.66
2022-08-07T04:42:28.711Z,75.56
2022-08-07T04:44:12.292Z,75.56
2022-08-07T04:44:29.313Z,75.56
2022-08-07T04:46:00.348Z,75.76
2022-08-07T04:46:34.629Z,75.66
2022-08-07T04:47:56.930Z,75.86
2022-08-07T04:48:29.302Z,75.96
2022-08-07T04:49:28.581Z,75.86
2022-08-07T04:50:29.255Z,75.86
2022-08-07T04:51:28.232Z,75.96
2022-08-07T04:52:28.223Z,76.06
2022-08-07T04:54:01.410Z,75.66
2022-08-07T04:54:30.100Z,75.86
2022-08-07T04:58:10.522Z,75.96
2022-08-07T04:58:12.545Z,75.66
2022-08-07T04:58:15.666Z,76.27
2022-08-07T04:58:48.836Z,76.17
2022-08-07T05:00:10.783Z,76.06
2022-08-07T05:00:30.980Z,75.86
2022-08-07T05:01:29.997Z,75.76
2022-08-07T05:02:28.152Z,75.76
2022-08-07T05:04:00.519Z,75.66
2022-08-07T05:04:29.104Z,75.56
2022-08-07T05:05:52.014Z,77.79
2022-08-07T05:06:29.072Z,77.04
2022-08-07T05:07:36.570Z,77.04
2022-08-07T05:08:58.886Z,76.43
2022-08-07T05:09:45.646Z,75.62
2022-08-07T05:10:30.761Z,75.22
2022-08-07T05:11:28.034Z,75.12
2022-08-07T05:12:30.455Z,75.01
2022-08-07T05:14:55.035Z,74.61
2022-08-07T05:14:55.284Z,74.51
2022-08-07T05:15:28.972Z,74.51
2022-08-07T05:16:28.003Z,74.10
2022-08-07T05:17:51.873Z,74.10
2022-08-07T05:18:29.560Z,74.07
2022-08-07T05:19:44.024Z,73.86
2022-08-07T05:20:36.135Z,73.76
2022-08-07T05:22:00.169Z,73.97
2022-08-07T05:22:29.132Z,74.17
2022-08-07T05:23:30.954Z,74.27
2022-08-07T05:24:30.638Z,74.37
2022-08-07T05:26:10.285Z,74.07
2022-08-07T05:26:28.862Z,73.86
2022-08-07T05:28:05.922Z,73.66
2022-08-07T05:28:29.295Z,73.97
2022-08-07T05:29:27.892Z,74.07
2022-08-07T05:30:32.339Z,74.33
2022-08-07T05:31:35.048Z,74.64
2022-08-07T05:32:28.794Z,74.33
2022-08-07T05:33:27.792Z,74.24
2022-08-07T05:34:27.793Z,73.93
2022-08-07T05:35:33.362Z,73.43
2022-08-07T05:36:30.617Z,72.88
2022-08-07T05:37:28.938Z,72.28
2022-08-07T05:39:00.419Z,71.97
2022-08-07T05:40:16.759Z,71.77
2022-08-07T05:40:28.920Z,71.26
2022-08-07T05:42:01.159Z,70.96
2022-08-07T05:42:34.521Z,70.76
2022-08-07T05:43:50.004Z,70.65
2022-08-07T05:44:29.148Z,70.52
2022-08-07T05:45:47.055Z,70.42
2022-08-07T05:46:29.434Z,70.62
2022-08-07T05:47:38.506Z,70.73
2022-08-07T05:48:28.652Z,70.32
2022-08-07T05:49:27.644Z,69.98
2022-08-07T05:50:28.663Z,69.89
2022-08-07T05:51:31.517Z,69.48
2022-08-07T05:52:32.329Z,69.48
2022-08-07T05:54:12.565Z,69.38
2022-08-07T05:54:30.718Z,69.18
2022-08-07T05:56:02.379Z,68.97
2022-08-07T05:56:30.269Z,69.07
2022-08-07T05:57:30.012Z,68.97
2022-08-07T05:58:36.919Z,68.74
2022-08-07T05:59:28.502Z,68.63
2022-08-07T06:00:31.762Z,69.14
2022-08-07T06:01:27.553Z,69.34
2022-08-07T06:02:29.423Z,69.14
2022-08-07T06:03:27.474Z,68.94
2022-08-07T06:04:30.293Z,68.84
2022-08-07T06:05:28.290Z,68.94
2022-08-07T06:06:35.139Z,68.63
2022-08-07T06:08:12.339Z,68.54
2022-08-07T06:08:31.616Z,68.33
2022-08-07T06:09:44.792Z,68.30
2022-08-07T06:10:28.392Z,68.10
2022-08-07T06:11:27.371Z,68.20
2022-08-07T06:12:31.772Z,68.40
2022-08-07T06:14:10.349Z,68.40
2022-08-07T06:14:28.885Z,68.20
2022-08-07T06:15:39.301Z,68.00
2022-08-07T06:16:28.328Z,67.90
2022-08-07T06:17:31.926Z,67.80
2022-08-07T06:18:28.314Z,67.86
2022-08-07T06:19:57.590Z,67.26
2022-08-07T06:20:50.713Z,66.65
2022-08-07T06:22:15.370Z,66.65
2022-08-07T06:22:28.551Z,66.55
2022-08-07T06:24:38.005Z,66.35
2022-08-07T06:24:45.794Z,66.45
2022-08-07T06:25:28.222Z,66.75
2022-08-07T06:26:28.242Z,66.55
2022-08-07T06:28:00.731Z,66.75
2022-08-07T06:28:32.342Z,66.65
2022-08-07T06:29:27.180Z,66.52
2022-08-07T06:30:35.607Z,66.42
2022-08-07T06:31:38.541Z,66.32
2022-08-07T06:32:29.368Z,66.22
2022-08-07T06:33:27.142Z,66.02
2022-08-07T06:34:29.621Z,66.02
2022-08-07T06:35:39.171Z,66.02
2022-08-07T06:36:35.212Z,65.99
2022-08-07T06:37:43.922Z,65.68
2022-08-07T06:38:30.489Z,65.68
2022-08-07T06:40:17.253Z,65.18
2022-08-07T06:40:34.013Z,64.78
2022-08-07T06:42:00.385Z,64.78
2022-08-07T06:42:34.917Z,64.78
2022-08-07T06:43:28.363Z,64.67
2022-08-07T06:44:31.126Z,64.47
2022-08-07T06:45:28.011Z,64.58
2022-08-07T06:46:35.007Z,64.37
2022-08-07T06:47:28.134Z,64.64
2022-08-07T06:48:27.974Z,64.24
2022-08-07T06:49:26.993Z,63.93
2022-08-07T06:50:27.013Z,64.04
2022-08-07T06:51:31.220Z,63.93
2022-08-07T06:52:31.852Z,63.64
2022-08-07T06:55:27.226Z,63.84
2022-08-07T06:55:32.195Z,63.90
2022-08-07T06:55:47.983Z,63.81
2022-08-07T06:56:27.883Z,63.60
2022-08-07T06:57:43.645Z,63.50
2022-08-07T06:58:28.826Z,63.30
2022-08-07T07:00:13.862Z,63.00
2022-08-07T07:00:27.863Z,62.80
2022-08-07T07:01:26.868Z,62.70
2022-08-07T07:02:53.857Z,61.89
2022-08-07T07:03:48.832Z,61.89
2022-08-07T07:04:33.832Z,62.09
2022-08-07T07:06:03.075Z,62.09
2022-08-07T07:06:27.782Z,62.46
2022-08-07T07:07:59.796Z,62.37
2022-08-07T07:08:27.986Z,61.96
2022-08-07T07:09:31.757Z,61.86
2022-08-07T07:10:26.763Z,61.86
2022-08-07T07:12:07.673Z,61.76
2022-08-07T07:12:31.296Z,61.66
2022-08-07T07:13:56.601Z,61.76
2022-08-07T07:14:34.344Z,61.86
2022-08-07T07:15:32.730Z,61.96
2022-08-07T07:16:30.415Z,61.73
2022-08-07T07:17:26.770Z,61.23
2022-08-07T07:18:46.838Z,61.13
2022-08-07T07:19:56.618Z,61.43
2022-08-07T07:20:27.643Z,60.72
2022-08-07T07:21:27.054Z,60.52
2022-08-07T07:22:39.993Z,60.32
2022-08-07T07:24:09.999Z,60.63
2022-08-07T07:24:27.585Z,60.93
2022-08-07T07:26:34.632Z,61.13
2022-08-07T07:26:35.418Z,61.13
2022-08-07T07:27:27.931Z,61.33
2022-08-07T07:28:42.726Z,60.52
2022-08-07T07:29:56.988Z,60.09
2022-08-07T07:30:38.000Z,59.99
2022-08-07T07:31:30.512Z,59.99
2022-08-07T07:32:27.562Z,60.09
2022-08-07T07:33:26.543Z,59.99
2022-08-07T07:34:27.950Z,59.89
2022-08-07T07:35:26.490Z,59.99
2022-08-07T07:36:32.341Z,59.86
2022-08-07T07:37:47.256Z,59.46
2022-08-07T07:38:27.434Z,59.26
2022-08-07T07:39:26.470Z,59.36
2022-08-07T07:40:27.425Z,59.76
2022-08-07T07:41:30.958Z,59.83
2022-08-07T07:42:33.200Z,59.83
2022-08-07T07:43:48.060Z,59.94
2022-08-07T07:44:27.376Z,59.43
2022-08-07T07:46:35.602Z,59.13
2022-08-07T07:46:37.414Z,59.23
2022-08-07T07:47:27.362Z,59.13
2022-08-07T07:48:35.705Z,58.73
2022-08-07T07:50:35.221Z,58.09
2022-08-07T07:50:35.717Z,58.09
2022-08-07T07:51:27.339Z,58.00
2022-08-07T07:52:26.364Z,57.79
2022-08-07T07:53:26.285Z,57.79
2022-08-07T07:54:26.264Z,58.00
2022-08-07T07:55:26.266Z,58.29
2022-08-07T07:56:31.764Z,58.60
2022-08-07T07:57:51.742Z,58.50
2022-08-07T07:58:27.914Z,58.40
2022-08-07T07:59:51.561Z,58.09
2022-08-07T08:00:29.455Z,58.29
2022-08-07T08:02:02.086Z,57.87
2022-08-07T08:02:34.075Z,57.46
2022-08-07T08:04:09.835Z,56.76
2022-08-07T08:04:28.900Z,57.77
2022-08-07T08:05:42.614Z,58.27
2022-08-07T08:06:27.134Z,57.67
2022-08-07T08:07:35.687Z,58.34
2022-08-07T08:08:35.670Z,58.24
2022-08-07T08:09:32.722Z,57.04
2022-08-07T08:10:37.763Z,56.84
2022-08-07T08:11:47.380Z,56.84
2022-08-07T08:12:51.289Z,56.41
2022-08-07T08:13:33.279Z,56.21
2022-08-07T08:14:27.045Z,57.81
2022-08-07T08:15:58.085Z,54.88
2022-08-07T08:16:29.798Z,55.18
2022-08-07T08:17:58.087Z,55.08
2022-08-07T08:18:27.005Z,53.77
2022-08-07T08:20:17.708Z,54.17
2022-08-07T08:20:31.847Z,54.77
2022-08-07T08:21:55.993Z,55.58
2022-08-07T08:22:32.783Z,55.45
2022-08-07T08:23:28.112Z,55.35
2022-08-07T08:24:44.950Z,55.55
2022-08-07T08:25:42.243Z,55.05
2022-08-07T08:26:26.917Z,54.45
2022-08-07T08:27:25.936Z,54.65
2022-08-07T08:28:38.071Z,53.64
2022-08-07T08:29:26.985Z,53.45
2022-08-07T08:30:25.896Z,53.75
2022-08-07T08:31:58.982Z,53.25
2022-08-07T08:32:38.545Z,53.34
2022-08-07T08:33:28.723Z,54.15
2022-08-07T08:34:29.192Z,53.75
2022-08-07T08:35:28.931Z,53.55
2022-08-07T08:36:34.057Z,53.12
2022-08-07T08:37:59.690Z,53.52
2022-08-07T08:38:29.873Z,53.52
2022-08-07T08:39:25.857Z,53.82
2022-08-07T08:40:28.634Z,53.62
2022-08-07T08:41:25.757Z,54.12
2022-08-07T08:42:26.756Z,53.92
2022-08-07T08:43:41.740Z,53.89
2022-08-07T08:44:31.377Z,53.19
2022-08-07T08:45:26.865Z,53.00
2022-08-07T08:46:26.706Z,52.59
2022-08-07T08:47:25.700Z,51.39
2022-08-07T08:48:28.524Z,49.39
2022-08-07T08:49:33.351Z,48.96
2022-08-07T08:50:35.082Z,48.46
2022-08-07T08:52:01.086Z,47.66
2022-08-07T08:52:30.330Z,46.36
2022-08-07T08:53:29.467Z,46.86
2022-08-07T08:54:25.619Z,46.66
2022-08-07T08:55:54.868Z,47.66
2022-08-07T08:56:29.799Z,47.36
2022-08-07T08:57:25.598Z,47.96
2022-08-07T08:58:28.903Z,48.57
2022-08-07T08:59:25.568Z,46.46
2022-08-07T09:00:25.559Z,47.16
2022-08-07T09:01:40.241Z,46.66
2022-08-07T09:02:34.794Z,45.56
2022-08-07T09:03:48.051Z,46.46
2022-08-07T09:04:28.886Z,46.66
2022-08-07T09:05:32.296Z,46.06
2022-08-07T09:06:26.509Z,45.54
2022-08-07T09:07:25.518Z,46.64
2022-08-07T09:08:28.574Z,45.04
2022-08-07T09:09:30.076Z,45.62
2022-08-07T09:10:25.449Z,47.11
2022-08-07T09:11:50.409Z,45.62
2022-08-07T09:12:31.223Z,46.19
2022-08-07T09:13:37.668Z,45.69
2022-08-07T09:14:29.524Z,44.89
2022-08-07T09:16:24.812Z,45.29
2022-08-07T09:16:30.408Z,44.79
2022-08-07T09:17:25.409Z,44.20
2022-08-07T09:18:26.410Z,44.09
2022-08-07T09:19:52.180Z,44.79
2022-08-07T09:20:35.251Z,45.09
2022-08-07T09:21:58.276Z,45.50
2022-08-07T09:24:30.453Z,44.79
2022-08-07T09:24:30.559Z,45.89
2022-08-07T09:24:54.069Z,44.39
2022-08-07T09:25:26.301Z,44.59
2022-08-07T09:26:25.280Z,44.70
2022-08-07T09:27:27.366Z,44.12
2022-08-07T09:30:01.165Z,44.71
2022-08-07T09:30:03.417Z,44.92
2022-08-07T09:30:28.313Z,44.82
2022-08-07T09:31:25.229Z,46.99
2022-08-07T09:32:26.433Z,45.00
2022-08-07T09:33:53.230Z,43.70
2022-08-07T09:34:27.391Z,43.27
2022-08-07T09:36:01.308Z,43.37
2022-08-07T09:36:27.128Z,43.27
2022-08-07T09:37:48.559Z,43.67
2022-08-07T09:38:27.868Z,43.87
2022-08-07T09:39:53.928Z,43.57
2022-08-07T09:40:26.205Z,43.18
2022-08-07T09:41:25.131Z,45.75
2022-08-07T09:42:25.234Z,44.65
2022-08-07T09:43:40.071Z,43.93
2022-08-07T09:44:32.904Z,42.24
2022-08-07T09:47:50.040Z,41.96
2022-08-07T09:47:50.135Z,41.55
2022-08-07T09:47:57.734Z,41.75
2022-08-07T09:48:29.676Z,41.46
2022-08-07T09:50:03.937Z,41.88
2022-08-07T09:50:26.476Z,42.07
2022-08-07T09:52:09.410Z,42.87
2022-08-07T09:52:34.450Z,42.27
2022-08-07T09:53:26.001Z,42.10
2022-08-07T09:54:27.199Z,42.79
2022-08-07T09:55:29.746Z,42.79
2022-08-07T09:56:37.340Z,42.29
2022-08-07T09:57:28.177Z,42.19
2022-08-07T09:58:32.193Z,42.40
2022-08-07T09:59:35.816Z,42.10
2022-08-07T10:00:30.047Z,42.29
2022-08-07T10:01:51.881Z,42.60
2022-08-07T10:02:29.569Z,42.79
2022-08-07T10:04:06.677Z,42.19
2022-08-07T10:04:27.944Z,41.80
2022-08-07T10:05:58.169Z,41.89
2022-08-07T10:06:25.965Z,42.29
2022-08-07T10:07:26.201Z,42.19
2022-08-07T10:08:25.833Z,41.80
2022-08-07T10:09:34.291Z,41.97
2022-08-07T10:10:28.325Z,42.18
2022-08-07T10:12:01.460Z,41.88
2022-08-07T10:12:26.406Z,42.18
2022-08-07T10:13:54.986Z,42.07
2022-08-07T10:14:31.089Z,41.58
2022-08-07T10:15:25.772Z,41.97
2022-08-07T10:16:24.761Z,41.97
2022-08-07T10:17:24.879Z,41.58
2022-08-07T10:18:26.424Z,41.77
2022-08-07T10:19:24.773Z,41.97
2022-08-07T10:20:30.470Z,41.58
2022-08-07T10:22:14.731Z,41.27
2022-08-07T10:22:33.864Z,41.27
2022-08-07T10:24:04.767Z,41.27
2022-08-07T10:24:25.664Z,41.38
2022-08-07T10:25:24.662Z,40.97
2022-08-07T10:26:25.676Z,41.17
2022-08-07T10:27:24.664Z,40.58
2022-08-07T10:28:25.613Z,41.27
2022-08-07T10:29:24.613Z,41.08
2022-08-07T10:30:26.429Z,40.86
2022-08-07T10:31:24.624Z,40.16
2022-08-07T10:32:51.577Z,40.36
2022-08-07T10:34:06.909Z,40.66
2022-08-07T10:34:31.908Z,40.75
2022-08-07T10:35:25.719Z,41.05
2022-08-07T10:36:29.356Z,41.05
2022-08-07T10:37:26.654Z,41.05
2022-08-07T10:38:41.154Z,41.25
2022-08-07T10:39:25.781Z,40.95
2022-08-07T10:40:30.379Z,41.05
2022-08-07T10:41:46.341Z,40.86
2022-08-07T10:42:30.913Z,41.05
2022-08-07T10:43:29.812Z,41.36
2022-08-07T10:44:33.823Z,41.25
2022-08-07T10:45:44.718Z,41.05
2022-08-07T10:46:25.424Z,41.25
2022-08-07T10:47:27.114Z,41.25
2022-08-07T10:48:25.435Z,41.25
2022-08-07T10:49:49.031Z,40.94
2022-08-07T10:50:26.013Z,40.83
2022-08-07T10:51:39.169Z,41.03
2022-08-07T10:52:33.526Z,41.33
2022-08-07T10:53:44.320Z,39.74
2022-08-07T10:54:25.344Z,40.04
2022-08-07T10:55:37.238Z,40.44
2022-08-07T10:56:31.090Z,39.95
2022-08-07T10:57:34.462Z,40.86
2022-08-07T10:58:33.007Z,40.66
2022-08-07T10:59:25.305Z,40.75
2022-08-07T11:00:39.684Z,40.95
2022-08-07T11:01:25.323Z,40.66
2022-08-07T11:02:33.255Z,41.05
2022-08-07T11:03:28.241Z,40.56
2022-08-07T11:04:32.254Z,41.75
2022-08-07T11:05:25.237Z,41.24
2022-08-07T11:06:26.914Z,41.44
2022-08-07T11:07:24.673Z,41.74
2022-08-07T11:08:29.208Z,43.33
2022-08-07T11:10:09.019Z,42.02
2022-08-07T11:10:27.369Z,40.92
2022-08-07T11:11:24.201Z,41.41
2022-08-07T11:12:32.094Z,40.72
2022-08-07T11:14:43.662Z,40.72
2022-08-07T11:14:45.362Z,40.81
2022-08-07T11:15:26.272Z,40.62
2022-08-07T11:16:29.841Z,40.81
2022-08-07T11:17:43.290Z,40.12
2022-08-07T11:18:25.096Z,40.72
2022-08-07T11:19:27.223Z,40.32
2022-08-07T11:20:24.679Z,40.32
2022-08-07T11:21:31.919Z,40.42
2022-08-07T11:22:32.434Z,40.81
2022-08-07T11:23:26.336Z,40.62
2022-08-07T11:24:25.037Z,40.12
2022-08-07T11:25:24.018Z,39.92
2022-08-07T11:26:24.047Z,40.22
2022-08-07T11:28:01.646Z,41.22
2022-08-07T11:28:25.060Z,40.32
2022-08-07T11:29:42.575Z,39.92
2022-08-07T11:30:41.955Z,40.70
2022-08-07T11:31:24.958Z,38.90
2022-08-07T11:32:26.102Z,39.10
2022-08-07T11:33:54.010Z,39.02
2022-08-07T11:34:24.958Z,39.62
2022-08-07T11:35:25.078Z,39.72
2022-08-07T11:36:25.434Z,40.62
2022-08-07T11:37:24.896Z,40.12
2022-08-07T11:38:28.126Z,40.12
2022-08-07T11:39:23.940Z,39.70
2022-08-07T11:40:31.221Z,40.30
2022-08-07T11:41:29.658Z,39.20
2022-08-07T11:42:29.833Z,40.10
2022-08-07T11:43:41.617Z,40.30
2022-08-07T11:44:24.816Z,40.08
2022-08-07T11:45:35.585Z,40.38
2022-08-07T11:46:24.824Z,39.16
2022-08-07T11:47:26.175Z,39.86
2022-08-07T11:48:29.529Z,38.56
2022-08-07T11:49:51.130Z,39.48
2022-08-07T11:50:32.958Z,39.48
2022-08-07T11:51:41.904Z,39.58
2022-08-07T11:52:29.385Z,39.16
2022-08-07T11:53:25.350Z,38.86
2022-08-07T11:54:25.381Z,39.56
2022-08-07T11:56:24.746Z,38.67
2022-08-07T11:56:26.377Z,38.86
2022-08-07T11:57:57.870Z,39.16
2022-08-07T11:58:33.623Z,39.36
2022-08-07T12:00:11.139Z,38.84
2022-08-07T12:00:24.650Z,38.54
2022-08-07T12:02:00.565Z,38.84
2022-08-07T12:02:30.357Z,38.84
2022-08-07T12:03:44.479Z,39.44
2022-08-07T12:04:24.610Z,39.06
2022-08-07T12:05:28.456Z,39.36
2022-08-07T12:06:38.981Z,40.06
2022-08-07T12:07:27.692Z,40.56
2022-08-07T12:08:26.118Z,39.66
2022-08-07T12:09:24.590Z,38.67
2022-08-07T12:10:23.540Z,39.06
2022-08-07T12:11:23.529Z,38.86
2022-08-07T12:12:24.521Z,38.95
2022-08-07T12:13:37.267Z,38.75
2022-08-07T12:14:24.501Z,38.35
2022-08-07T12:15:46.592Z,38.35
2022-08-07T12:16:30.375Z,38.15
2022-08-07T12:17:24.462Z,37.85
2022-08-07T12:18:29.788Z,37.73
2022-08-07T12:19:24.442Z,38.03
2022-08-07T12:20:30.600Z,38.03
2022-08-07T12:22:35.671Z,37.53
2022-08-07T12:22:37.338Z,37.43
2022-08-07T12:24:06.351Z,38.13
2022-08-07T12:24:37.730Z,38.13
2022-08-07T12:26:06.139Z,38.03
2022-08-07T12:26:29.747Z,38.23
2022-08-07T12:27:28.014Z,38.43
2022-08-07T12:28:31.355Z,38.33
2022-08-07T12:29:37.847Z,37.93
2022-08-07T12:30:24.332Z,38.23
2022-08-07T12:31:23.713Z,38.33
2022-08-07T12:32:23.313Z,38.23
2022-08-07T12:33:30.882Z,38.05
2022-08-07T12:34:25.907Z,37.95
2022-08-07T12:35:24.069Z,38.84
2022-08-07T12:36:33.446Z,38.65
2022-08-07T12:37:28.199Z,38.05
2022-08-07T12:38:36.913Z,38.25
2022-08-07T12:39:42.106Z,37.75
2022-08-07T12:40:46.942Z,37.55
2022-08-07T12:41:24.297Z,37.85
2022-08-07T12:42:27.535Z,37.65
2022-08-07T12:44:03.152Z,37.95
2022-08-07T12:44:24.214Z,38.75
2022-08-07T12:45:23.226Z,38.45
2022-08-07T12:46:26.300Z,37.63
2022-08-07T12:47:31.065Z,37.45
2022-08-07T12:48:28.367Z,37.65
2022-08-07T12:49:25.340Z,37.95
2022-08-07T12:50:33.777Z,38.45
2022-08-07T12:51:24.112Z,38.75
2022-08-07T12:52:24.115Z,38.73